createdAt,value
2022-12-25T00:03:24.411Z,101023.42
2022-12-25T00:08:31.772Z,101025.67
2022-12-25T00:13:39.448Z,101028.22
2022-12-25T00:18:47.007Z,101033.92
2022-12-25T00:23:58.345Z,101037.83
2022-12-25T00:29:05.534Z,101037.71
2022-12-25T00:34:12.756Z,101037.92
2022-12-25T00:39:20.046Z,101040.02
2022-12-25T00:44:27.247Z,101050.77
2022-12-25T00:49:34.414Z,101058.52
2022-12-25T00:54:43.975Z,101066.38
2022-12-25T00:59:51.333Z,101071.70
2022-12-25T01:04:59.207Z,101061.91
2022-12-25T01:10:23.815Z,101074.77
2022-12-25T01:15:30.944Z,101083.23
2022-12-25T01:20:38.114Z,101085.96
2022-12-25T01:25:45.283Z,101086.15
2022-12-25T01:30:52.868Z,101083.59
2022-12-25T01:36:00.185Z,101090.64
2022-12-25T01:41:07.670Z,101096.95
2022-12-25T01:46:15.064Z,101094.92
2022-12-25T01:51:28.435Z,101090.43
2022-12-25T01:56:38.921Z,101084.83
2022-12-25T02:01:47.057Z,101090.96
2022-12-25T02:06:55.148Z,101088.67
2022-12-25T02:12:02.663Z,101091.52
2022-12-25T02:17:17.591Z,101094.55
2022-12-25T02:22:36.394Z,101089.88
2022-12-25T02:28:11.567Z,101084.86
2022-12-25T02:33:43.749Z,101085.70
2022-12-25T02:39:13.016Z,101085.48
2022-12-25T02:44:42.330Z,101096.46
2022-12-25T02:50:08.069Z,101099.04
2022-12-25T02:55:36.809Z,101103.46
2022-12-25T03:01:05.529Z,101107.13
2022-12-25T03:06:32.274Z,101111.98
2022-12-25T03:11:39.539Z,101118.00
2022-12-25T03:16:54.318Z,101118.37
2022-12-25T03:22:20.027Z,101108.49
2022-12-25T03:27:29.952Z,101103.23
2022-12-25T03:32:48.665Z,101116.81
2022-12-25T03:38:29.009Z,101136.92
2022-12-25T03:44:07.400Z,101147.41
2022-12-25T03:49:40.947Z,101149.93
2022-12-25T03:55:08.827Z,101146.09
2022-12-25T04:00:34.866Z,101146.09
2022-12-25T04:05:59.607Z,101147.59
2022-12-25T04:11:24.281Z,101143.73
2022-12-25T04:16:49.071Z,101143.84
2022-12-25T04:22:13.736Z,101150.09
2022-12-25T04:27:38.445Z,101137.80
2022-12-25T04:33:03.468Z,101132.64
2022-12-25T04:38:10.656Z,101138.10
2022-12-25T04:43:17.857Z,101147.39
2022-12-25T04:48:25.325Z,101151.23
2022-12-25T04:53:32.480Z,101157.40
2022-12-25T04:58:40.179Z,101161.71
2022-12-25T05:03:47.445Z,101166.02
2022-12-25T05:08:54.828Z,101169.45
2022-12-25T05:14:02.045Z,101177.27
2022-12-25T05:19:09.881Z,101182.19
2022-12-25T05:24:17.017Z,101191.89
2022-12-25T05:29:24.132Z,101196.13
2022-12-25T05:34:31.450Z,101193.99
2022-12-25T05:39:38.643Z,101196.41
2022-12-25T05:44:45.763Z,101203.51
2022-12-25T05:49:52.957Z,101211.74
2022-12-25T05:55:00.480Z,101215.45
2022-12-25T06:00:09.901Z,101212.73
2022-12-25T06:05:19.796Z,101210.58
2022-12-25T06:10:27.009Z,101201.45
2022-12-25T06:15:34.236Z,101219.41
2022-12-25T06:20:44.149Z,101238.27
2022-12-25T06:25:51.396Z,101244.73
2022-12-25T06:30:59.405Z,101254.44
2022-12-25T06:36:07.853Z,101268.38
2022-12-25T06:41:16.891Z,101275.64
2022-12-25T06:46:26.437Z,101286.89
2022-12-25T06:51:35.235Z,101306.95
2022-12-25T06:56:42.349Z,101321.84
2022-12-25T07:01:52.154Z,101318.67
2022-12-25T07:07:04.453Z,101323.16
2022-12-25T07:12:19.777Z,101323.77
2022-12-25T07:17:26.996Z,101332.75
2022-12-25T07:22:34.240Z,101341.79
2022-12-25T07:27:42.018Z,101338.90
2022-12-25T07:32:50.381Z,101342.19
2022-12-25T07:37:57.676Z,101347.00
2022-12-25T07:43:04.808Z,101347.60
2022-12-25T07:48:16.604Z,101349.05
2022-12-25T07:53:23.829Z,101346.70
2022-12-25T07:58:31.575Z,101341.60
2022-12-25T08:03:39.052Z,101345.63
2022-12-25T08:08:46.732Z,101348.05
2022-12-25T08:13:54.009Z,101351.16
2022-12-25T08:19:01.265Z,101355.33
2022-12-25T08:24:09.159Z,101358.55
2022-12-25T08:29:16.339Z,101364.13
2022-12-25T08:34:23.718Z,101352.82
2022-12-25T08:39:31.164Z,101351.85
2022-12-25T08:44:38.319Z,101356.38
2022-12-25T08:49:45.491Z,101359.69
2022-12-25T08:54:53.121Z,101356.72
2022-12-25T09:00:00.586Z,101361.69
2022-12-25T09:05:09.751Z,101367.93
2022-12-25T09:10:17.284Z,101376.84
2022-12-25T09:15:24.550Z,101386.06
2022-12-25T09:20:31.748Z,101385.53
2022-12-25T09:25:39.056Z,101384.17
2022-12-25T09:30:46.508Z,101385.40
2022-12-25T09:36:01.354Z,101385.30
2022-12-25T09:41:15.935Z,101396.92
2022-12-25T09:46:30.161Z,101395.96
2022-12-25T09:51:45.170Z,101393.66
2022-12-25T09:56:52.444Z,101383.98
2022-12-25T10:02:22.340Z,101379.92
2022-12-25T10:07:36.140Z,101389.31
2022-12-25T10:12:54.827Z,101391.31
2022-12-25T10:18:21.965Z,101389.85
2022-12-25T10:23:33.971Z,101393.73
2022-12-25T10:28:45.780Z,101394.85
2022-12-25T10:33:54.774Z,101389.92
2022-12-25T10:39:04.362Z,101386.70
2022-12-25T10:44:20.504Z,101383.48
2022-12-25T10:49:32.996Z,101374.44
2022-12-25T10:54:40.355Z,101371.98
2022-12-25T10:59:49.937Z,101366.16
2022-12-25T11:05:05.339Z,101367.05
2022-12-25T11:10:23.596Z,101366.42
2022-12-25T11:15:36.731Z,101368.95
2022-12-25T11:20:51.499Z,101365.69
2022-12-25T11:26:00.267Z,101368.58
2022-12-25T11:31:12.947Z,101377.66
2022-12-25T11:36:24.432Z,101386.45
2022-12-25T11:41:35.699Z,101381.91
2022-12-25T11:46:47.218Z,101375.45
2022-12-25T11:51:57.792Z,101370.17
2022-12-25T11:57:07.869Z,101360.40
2022-12-25T12:02:28.167Z,101360.34
2022-12-25T12:07:38.866Z,101360.36
2022-12-25T12:12:57.380Z,101350.44
2022-12-25T12:18:20.461Z,101354.31
2022-12-25T12:23:29.060Z,101357.08
2022-12-25T12:28:45.976Z,101360.45
2022-12-25T12:33:57.694Z,101360.13
2022-12-25T12:39:06.296Z,101371.02
2022-12-25T12:44:17.039Z,101372.55
2022-12-25T12:49:29.551Z,101371.88
2022-12-25T12:54:58.437Z,101369.93
2022-12-25T13:00:11.012Z,101369.98
2022-12-25T13:05:34.255Z,101380.54
2022-12-25T13:10:47.106Z,101381.42
2022-12-25T13:15:56.203Z,101387.52
2022-12-25T13:21:06.786Z,101385.17
2022-12-25T13:26:18.585Z,101386.88
2022-12-25T13:31:27.587Z,101381.25
2022-12-25T13:36:40.776Z,101364.96
2022-12-25T13:42:06.611Z,101352.20
2022-12-25T13:47:26.009Z,101346.77
2022-12-25T13:52:38.836Z,101354.99
2022-12-25T13:57:51.223Z,101355.98
2022-12-25T14:02:58.793Z,101360.48
2022-12-25T14:08:14.564Z,101366.59
2022-12-25T14:13:24.867Z,101373.62
2022-12-25T14:18:32.764Z,101372.66
2022-12-25T14:23:45.423Z,101363.73
2022-12-25T14:28:54.936Z,101360.54
2022-12-25T14:34:04.519Z,101360.70
2022-12-25T14:39:34.884Z,101359.51
2022-12-25T14:44:43.213Z,101356.79
2022-12-25T14:49:51.176Z,101363.49
2022-12-25T14:54:58.291Z,101367.04
2022-12-25T15:00:21.687Z,101371.73
2022-12-25T15:05:40.675Z,101373.56
2022-12-25T15:11:04.673Z,101370.55
2022-12-25T15:16:19.027Z,101363.73
2022-12-25T15:21:29.851Z,101370.51
2022-12-25T15:26:37.009Z,101377.44
2022-12-25T15:31:44.242Z,101379.04
2022-12-25T15:36:53.026Z,101379.64
2022-12-25T15:42:13.065Z,101379.23
2022-12-25T15:47:21.250Z,101377.70
2022-12-25T15:52:28.400Z,101379.82
2022-12-25T15:57:36.519Z,101381.14
2022-12-25T16:02:45.078Z,101377.09
2022-12-25T16:07:52.406Z,101360.67
2022-12-25T16:12:59.524Z,101346.62
2022-12-25T16:18:07.428Z,101338.73
2022-12-25T16:23:14.497Z,101337.90
2022-12-25T16:28:21.735Z,101332.55
2022-12-25T16:33:30.532Z,101332.02
2022-12-25T16:38:37.787Z,101340.23
2022-12-25T16:43:45.071Z,101348.68
2022-12-25T16:48:52.351Z,101339.06
2022-12-25T16:53:59.763Z,101329.58
2022-12-25T16:59:07.103Z,101328.20
2022-12-25T17:04:14.459Z,101328.40
2022-12-25T17:09:21.675Z,101335.35
2022-12-25T17:14:29.016Z,101336.38
2022-12-25T17:19:36.243Z,101335.59
2022-12-25T17:24:43.358Z,101338.45
2022-12-25T17:29:50.955Z,101334.69
2022-12-25T17:34:58.171Z,101320.72
2022-12-25T17:40:05.579Z,101314.18
2022-12-25T17:45:14.121Z,101312.21
2022-12-25T17:50:34.617Z,101300.54
2022-12-25T17:55:50.877Z,101287.46
2022-12-25T18:00:58.273Z,101273.83
2022-12-25T18:06:06.978Z,101256.05
2022-12-25T18:11:15.973Z,101252.12
2022-12-25T18:16:25.577Z,101247.08
2022-12-25T18:21:33.824Z,101239.40
2022-12-25T18:26:41.364Z,101246.52
2022-12-25T18:31:49.132Z,101250.44
2022-12-25T18:37:03.077Z,101242.32
2022-12-25T18:42:28.224Z,101235.62
2022-12-25T18:47:36.440Z,101241.83
2022-12-25T18:52:47.359Z,101256.10
2022-12-25T18:57:58.964Z,101257.34
2022-12-25T19:03:06.415Z,101251.03
2022-12-25T19:08:13.619Z,101233.60
2022-12-25T19:13:22.522Z,101209.17
2022-12-25T19:18:29.699Z,101196.96
2022-12-25T19:23:38.801Z,101185.23
2022-12-25T19:28:48.283Z,101179.34
2022-12-25T19:33:55.618Z,101177.04
2022-12-25T19:39:02.947Z,101175.81
2022-12-25T19:44:10.217Z,101164.52
2022-12-25T19:49:17.326Z,101158.66
2022-12-25T19:54:24.537Z,101157.52
2022-12-25T19:59:33.183Z,101149.69
2022-12-25T20:04:44.767Z,101147.60
2022-12-25T20:09:54.044Z,101143.77
2022-12-25T20:15:01.538Z,101133.14
2022-12-25T20:20:10.839Z,101127.71
2022-12-25T20:25:19.876Z,101113.64
2022-12-25T20:30:27.531Z,101100.80
2022-12-25T20:35:34.801Z,101093.41
2022-12-25T20:41:24.410Z,101098.15
2022-12-25T20:46:11.106Z,101099.69
2022-12-25T20:51:23.878Z,101097.62
2022-12-25T20:56:33.918Z,101091.14
2022-12-25T21:01:42.035Z,101077.58
2022-12-25T21:06:49.838Z,101067.32
2022-12-25T21:11:57.713Z,101061.55
2022-12-25T21:17:05.563Z,101039.16
2022-12-25T21:22:13.673Z,101018.02
2022-12-25T21:27:21.569Z,100999.80
2022-12-25T21:32:46.835Z,100978.89
2022-12-25T21:37:55.176Z,100962.96
2022-12-25T21:43:04.492Z,100950.89
2022-12-25T21:48:13.728Z,100939.20
2022-12-25T21:53:21.996Z,100933.20
2022-12-25T21:58:29.417Z,100948.52
2022-12-25T22:03:37.258Z,100945.96
2022-12-25T22:08:45.361Z,100941.67
2022-12-25T22:14:08.517Z,100937.70
2022-12-25T22:19:36.277Z,100930.52
2022-12-25T22:24:44.654Z,100917.51
2022-12-25T22:29:53.796Z,100924.86
2022-12-25T22:35:02.010Z,100907.23
2022-12-25T22:40:13.036Z,100908.88
2022-12-25T22:45:21.072Z,100901.59
2022-12-25T22:50:28.408Z,100878.98
2022-12-25T22:55:35.559Z,100863.27
2022-12-25T23:00:46.658Z,100863.11
2022-12-25T23:06:00.194Z,100854.40
2022-12-25T23:11:08.190Z,100857.86
2022-12-25T23:16:18.338Z,100871.45
2022-12-25T23:21:44.063Z,100872.36
2022-12-25T23:26:51.507Z,100860.10
2022-12-25T23:32:00.251Z,100834.54
2022-12-25T23:37:07.780Z,100820.33
2022-12-25T23:42:15.272Z,100826.33
2022-12-25T23:47:22.516Z,100826.98
2022-12-25T23:52:30.199Z,100831.13
2022-12-25T23:57:37.505Z,100824.86
